Terminal Aerodrome Forecast
Issued by NWS

Current Version | Previous Version | Text Only | Print | Product List | Glossary On
Versions: 1 2 3 4 5 6 7 8 9 10 11 12
530
FTAK31 PAJN 211721
TAFASI
TAF
PASI 211721Z 2118/2218 31006KT P6SM -SHSN OVC040
     FM220900 VRB03KT P6SM SCT080=

USA.gov is the U.S. government's official web portal to all federal, state and local government web resources and services.